Wales Township, Michigan
Current Conditions -  °F | °C
As of 3:18 AM on Thursday 29 Jan 2015 (Local Time) from KPHN Reporting Station
Overcast Overcast  
Wind Chill: 14°   Ceiling: 7000
Heat Index: 25°   Visibility: 10mi
Dew Point: 18°   Wind: 12mph
Humidity: 74%   Direction: 140°SE
Pressure: 30.04"   Gusts: 18mph
Location:  42.9446°N, 82.6827°W
Report Text: KPHN 290818Z AUTO 14010G16KT 10SM OVC070 M04/M08 A3004 RMK AO2
Loading
Personal Weather Stations






























Interactive Weather Map New forecast layout! Learn more

10-Day Weather Forecast

Advertisements
Track Severe Weather on mobile